Airport View

Enter AWOS ICAO identifier for current METAR.

ex. KFNL

KDYS 212256Z AUTO 17016KT 10SM SCT190 32/14 A2992 RMK AO2 PK WND 15027/31 SLP081 T03220139 PNO FZRANO $

21 Sep 2019 23:25

Other Area AWOS: KABI - KSWW - KCOM - KGZN

TAF KDYS 212200Z 2122/2304 16015G25KT 9999 FEW040 BKN070 BKN110 QNH2994INS TEMPO 2201/2202 9999 VCTS BKN045CB BECMG 2201/2202 14009KT 9999 -SHRA BKN020 OVC060 QNH2999INS BECMG 2204/2205 15012G18KT 9999 NSW BKN030 BKN055 QNH3001INS TEMPO 2205/2209 14009KT 9000 -SHRA BKN025 BECMG 2209/2210 17012G18KT 9999 BKN020 OVC070 QNH3001INS BECMG 2217/2218 10009KT 9999 BKN035 BKN085 QNH2996INS TX33/2122Z TN22/2213Z